Time;durP1;ratioP1;P1;durP2;ratioP2;P2;SDS_P1;SDS_P2;PMS_P1;PMS_P2;Temp;Humidity;BMP_temperature;BMP_pressure;BME280_temperature;BME280_humidity;BME280_pressure;Samples;Min_cycle;Max_cycle;Signal;HPM_P1;HPM_P2
2022/12/05 00:02:24;;;;;;;59.20;22.87;;;;;;;;;;5102151;27;20259;-81
2022/12/05 00:04:51;;;;;;;58.37;22.97;;;;;;;;;;5101066;28;20290;-81
2022/12/05 00:07:20;;;;;;;57.70;22.20;;;;;;;;;;5100656;28;20290;-81
2022/12/05 00:09:47;;;;;;;61.23;22.50;;;;;;;;;;5092909;28;20226;-81
2022/12/05 00:12:14;;;;;;;64.67;22.57;;;;;;;;;;5101429;28;20742;-81
2022/12/05 00:14:42;;;;;;;58.20;21.93;;;;;;;;;;5108156;28;20735;-80
2022/12/05 00:17:09;;;;;;;58.30;22.33;;;;;;;;;;5092592;28;20232;-80
2022/12/05 00:19:36;;;;;;;60.07;22.73;;;;;;;;;;5110971;27;20245;-81
2022/12/05 00:22:03;;;;;;;60.00;22.40;;;;;;;;;;5112651;28;20241;-81
2022/12/05 00:24:32;;;;;;;60.00;23.73;;;;;;;;;;5112458;28;20268;-80
2022/12/05 00:26:59;;;;;;;55.63;22.00;;;;;;;;;;5097912;28;20232;-81
2022/12/05 00:29:26;;;;;;;61.10;23.07;;;;;;;;;;5115956;27;20253;-81
2022/12/05 00:31:53;;;;;;;59.23;22.73;;;;;;;;;;5113542;28;20224;-80
2022/12/05 00:34:21;;;;;;;61.23;23.57;;;;;;;;;;5110479;28;20194;-81
2022/12/05 00:36:48;;;;;;;66.40;23.73;;;;;;;;;;5108550;28;20197;-81
2022/12/05 00:39:15;;;;;;;63.00;23.43;;;;;;;;;;5124747;28;20231;-81
2022/12/05 00:41:44;;;;;;;64.70;24.57;;;;;;;;;;5112190;28;20275;-80
2022/12/05 00:44:12;;;;;;;61.63;24.37;;;;;;;;;;5113384;28;20289;-81
2022/12/05 00:46:39;;;;;;;60.23;22.87;;;;;;;;;;5110518;28;20282;-80
2022/12/05 00:49:07;;;;;;;60.13;23.47;;;;;;;;;;5130582;28;20971;-81
2022/12/05 00:51:36;;;;;;;62.07;23.10;;;;;;;;;;5120716;28;20472;-81
2022/12/05 00:54:04;;;;;;;67.37;24.63;;;;;;;;;;5112037;27;20203;-81
2022/12/05 00:56:32;;;;;;;58.20;23.10;;;;;;;;;;5137414;27;20285;-80
2022/12/05 00:59:02;;;;;;;72.03;25.17;;;;;;;;;;5126622;27;20238;-80
2022/12/05 01:01:33;;;;;;;64.77;24.03;;;;;;;;;;5124293;27;20778;-80
2022/12/05 01:04:03;;;;;;;59.53;23.00;;;;;;;;;;5113978;27;20234;-79
2022/12/05 01:06:30;;;;;;;63.87;24.77;;;;;;;;;;5102993;28;20283;-79
2022/12/05 01:08:58;;;;;;;66.50;24.63;;;;;;;;;;5095859;28;20230;-79
2022/12/05 01:11:26;;;;;;;61.97;23.30;;;;;;;;;;5095742;28;20293;-78
2022/12/05 01:13:53;;;;;;;63.00;23.77;;;;;;;;;;5095582;28;20647;-79
2022/12/05 01:16:23;;;;;;;64.10;23.57;;;;;;;;;;5095995;28;20605;-79
2022/12/05 01:18:51;;;;;;;64.17;24.30;;;;;;;;;;5105491;27;20193;-79
2022/12/05 01:21:19;;;;;;;59.80;23.47;;;;;;;;;;5104825;27;20250;-79
2022/12/05 01:23:46;;;;;;;62.33;24.87;;;;;;;;;;5116373;27;20275;-79
2022/12/05 01:26:15;;;;;;;59.03;22.80;;;;;;;;;;5103300;28;20200;-79
2022/12/05 01:28:43;;;;;;;57.23;23.20;;;;;;;;;;5095450;28;20643;-79
2022/12/05 01:31:14;;;;;;;61.17;23.40;;;;;;;;;;5101769;28;20194;-79
2022/12/05 01:33:43;;;;;;;61.10;23.30;;;;;;;;;;5113025;28;20592;-79
2022/12/05 01:36:11;;;;;;;62.53;24.50;;;;;;;;;;5116120;28;20203;-79
2022/12/05 01:38:39;;;;;;;57.17;23.97;;;;;;;;;;5096063;28;20618;-79
2022/12/05 01:41:07;;;;;;;62.83;24.43;;;;;;;;;;5114329;28;20232;-79
2022/12/05 01:43:34;;;;;;;61.27;24.63;;;;;;;;;;5115584;28;20201;-79
2022/12/05 01:46:01;;;;;;;64.93;25.03;;;;;;;;;;5115759;27;20202;-79
2022/12/05 01:48:31;;;;;;;53.30;22.10;;;;;;;;;;5104134;28;20211;-79
2022/12/05 01:51:01;;;;;;;59.43;24.53;;;;;;;;;;5109839;27;20192;-79
2022/12/05 01:53:29;;;;;;;61.40;23.00;;;;;;;;;;5118013;27;20194;-79
2022/12/05 01:55:56;;;;;;;56.10;21.93;;;;;;;;;;5136465;27;20227;-79
2022/12/05 01:58:25;;;;;;;55.40;22.53;;;;;;;;;;5124886;27;20242;-79
2022/12/05 02:00:53;;;;;;;62.37;23.73;;;;;;;;;;5094759;28;20263;-79
2022/12/05 02:03:21;;;;;;;60.80;24.33;;;;;;;;;;5095223;28;20314;-79
2022/12/05 02:05:51;;;;;;;60.70;23.27;;;;;;;;;;5095978;28;20283;-78
2022/12/05 02:08:19;;;;;;;57.03;22.83;;;;;;;;;;5117979;27;20230;-79
2022/12/05 02:10:53;;;;;;;61.57;23.37;;;;;;;;;;5119350;27;20298;-78
2022/12/05 02:13:35;;;;;;;61.37;23.30;;;;;;;;;;5094879;28;20227;-79
2022/12/05 02:16:05;;;;;;;62.97;23.23;;;;;;;;;;5094736;28;20210;-79
2022/12/05 02:18:43;;;;;;;58.83;22.30;;;;;;;;;;5121910;27;20314;-79
2022/12/05 02:21:20;;;;;;;59.40;22.57;;;;;;;;;;5103422;28;20249;-79
2022/12/05 02:24:05;;;;;;;54.53;21.60;;;;;;;;;;5111012;28;20283;-79
2022/12/05 02:26:42;;;;;;;53.33;22.43;;;;;;;;;;5114858;28;20283;-79
2022/12/05 02:29:16;;;;;;;58.43;22.90;;;;;;;;;;5115045;28;20258;-79
2022/12/05 02:31:47;;;;;;;57.57;23.23;;;;;;;;;;5115466;28;20224;-79
2022/12/05 02:34:19;;;;;;;57.33;22.30;;;;;;;;;;5104791;28;20242;-79
2022/12/05 02:36:48;;;;;;;59.40;22.87;;;;;;;;;;5115603;27;20267;-79
2022/12/05 02:39:18;;;;;;;58.07;22.90;;;;;;;;;;5120786;27;20286;-79
2022/12/05 02:41:49;;;;;;;53.90;22.83;;;;;;;;;;5114083;27;20275;-79
2022/12/05 02:44:18;;;;;;;52.80;22.63;;;;;;;;;;5147910;27;20206;-79
2022/12/05 02:46:48;;;;;;;53.03;22.60;;;;;;;;;;5126062;27;20693;-79
2022/12/05 02:49:19;;;;;;;60.90;23.63;;;;;;;;;;5134850;27;20364;-79
2022/12/05 02:51:48;;;;;;;60.73;22.77;;;;;;;;;;5117432;27;20643;-79
2022/12/05 02:54:17;;;;;;;53.83;22.47;;;;;;;;;;5094177;28;20251;-79
2022/12/05 02:56:45;;;;;;;59.13;23.67;;;;;;;;;;5093781;28;20243;-79
2022/12/05 02:59:12;;;;;;;58.27;23.40;;;;;;;;;;5106989;28;20613;-79
2022/12/05 03:01:40;;;;;;;58.53;23.23;;;;;;;;;;5108674;28;20267;-79
2022/12/05 03:04:08;;;;;;;59.13;23.73;;;;;;;;;;5104028;28;20285;-79
2022/12/05 03:06:37;;;;;;;57.67;22.93;;;;;;;;;;5102812;28;20207;-79
2022/12/05 03:09:07;;;;;;;53.80;22.60;;;;;;;;;;5114615;28;20282;-79
2022/12/05 03:11:37;;;;;;;58.33;23.23;;;;;;;;;;5102773;28;20631;-79
2022/12/05 03:14:07;;;;;;;60.33;24.03;;;;;;;;;;5093650;28;20250;-79
2022/12/05 03:16:37;;;;;;;60.37;24.30;;;;;;;;;;5133542;27;20331;-79
2022/12/05 03:19:07;;;;;;;61.53;24.43;;;;;;;;;;5119003;27;20225;-79
2022/12/05 03:21:37;;;;;;;63.77;25.20;;;;;;;;;;5113843;28;20226;-79
2022/12/05 03:24:07;;;;;;;60.70;24.13;;;;;;;;;;5126065;27;20722;-79
2022/12/05 03:26:38;;;;;;;62.43;25.13;;;;;;;;;;5134311;27;20650;-79
2022/12/05 03:29:20;;;;;;;65.20;25.30;;;;;;;;;;5094392;28;20641;-79
2022/12/05 03:31:53;;;;;;;65.17;25.17;;;;;;;;;;5093545;28;20227;-79
2022/12/05 03:34:21;;;;;;;64.60;25.57;;;;;;;;;;5104943;28;20297;-79
2022/12/05 03:36:53;;;;;;;66.40;25.43;;;;;;;;;;5112336;28;20234;-79
2022/12/05 03:39:23;;;;;;;61.07;25.57;;;;;;;;;;5101131;28;20227;-79
2022/12/05 03:41:55;;;;;;;63.90;25.97;;;;;;;;;;5093308;28;20724;-79
2022/12/05 03:44:24;;;;;;;58.23;25.20;;;;;;;;;;5105335;27;20236;-79
2022/12/05 03:46:54;;;;;;;58.60;23.60;;;;;;;;;;5109235;27;20227;-79
2022/12/05 03:49:31;;;;;;;75.30;26.50;;;;;;;;;;5112955;28;20294;-79
2022/12/05 03:52:03;;;;;;;64.33;25.00;;;;;;;;;;5140126;27;20727;-79
2022/12/05 03:54:36;;;;;;;64.47;25.10;;;;;;;;;;5108295;27;20204;-79
2022/12/05 03:57:05;;;;;;;66.83;24.97;;;;;;;;;;5094354;28;20232;-80
2022/12/05 03:59:35;;;;;;;62.57;25.03;;;;;;;;;;5092794;28;20634;-79
2022/12/05 04:02:05;;;;;;;65.03;25.33;;;;;;;;;;5092883;28;20234;-80
2022/12/05 04:04:36;;;;;;;62.97;25.60;;;;;;;;;;5092781;28;20249;-79
2022/12/05 04:07:06;;;;;;;68.87;26.37;;;;;;;;;;5098712;27;20225;-79
2022/12/05 04:09:36;;;;;;;63.10;26.13;;;;;;;;;;5102714;27;20234;-79
2022/12/05 04:12:06;;;;;;;60.13;25.30;;;;;;;;;;5115326;27;20236;-79
2022/12/05 04:14:35;;;;;;;68.87;26.00;;;;;;;;;;5112696;28;20238;-79
2022/12/05 04:17:03;;;;;;;58.97;24.73;;;;;;;;;;5112963;28;20198;-79
2022/12/05 04:21:36;;;;;;;56.47;24.53;;;;;;;;;;5115531;28;20198;-79
2022/12/05 04:22:22;;;;;;;68.07;26.03;;;;;;;;;;5132974;27;20234;-79
2022/12/05 04:27:39;;;;;;;61.50;25.57;;;;;;;;;;5114997;28;20194;-79
2022/12/05 04:30:08;;;;;;;56.23;24.07;;;;;;;;;;5099392;28;20314;-79
2022/12/05 04:32:38;;;;;;;55.17;24.10;;;;;;;;;;5097075;28;20255;-79
2022/12/05 04:35:10;;;;;;;56.13;24.50;;;;;;;;;;5110344;28;20292;-79
2022/12/05 04:37:41;;;;;;;55.30;23.83;;;;;;;;;;5110922;28;20700;-79
2022/12/05 04:40:10;;;;;;;59.97;23.93;;;;;;;;;;5092531;28;20293;-79
2022/12/05 04:42:37;;;;;;;64.67;25.60;;;;;;;;;;5140282;27;20751;-79
2022/12/05 04:45:08;;;;;;;60.30;24.93;;;;;;;;;;5125371;28;20261;-79
2022/12/05 04:47:38;;;;;;;58.73;25.23;;;;;;;;;;5133128;28;20195;-78
2022/12/05 04:50:07;;;;;;;58.37;24.57;;;;;;;;;;5128016;27;20277;-79
2022/12/05 04:52:35;;;;;;;55.40;24.70;;;;;;;;;;5111101;28;20275;-79
2022/12/05 04:55:08;;;;;;;54.97;24.47;;;;;;;;;;5111308;28;20699;-79
2022/12/05 04:57:37;;;;;;;56.97;24.90;;;;;;;;;;5107887;28;20228;-79
2022/12/05 05:00:05;;;;;;;54.83;24.57;;;;;;;;;;5112628;28;20231;-79
2022/12/05 05:02:34;;;;;;;51.03;23.37;;;;;;;;;;5145424;27;20266;-79
2022/12/05 05:05:03;;;;;;;55.97;23.43;;;;;;;;;;5112330;28;20200;-79
2022/12/05 05:07:30;;;;;;;56.03;23.80;;;;;;;;;;5102677;28;20289;-79
2022/12/05 05:09:57;;;;;;;57.27;24.37;;;;;;;;;;5108332;28;20243;-79
2022/12/05 05:12:26;;;;;;;57.20;23.37;;;;;;;;;;5112227;28;20815;-79
2022/12/05 05:14:53;;;;;;;56.23;24.67;;;;;;;;;;5112551;28;20234;-78
2022/12/05 05:17:20;;;;;;;56.70;23.23;;;;;;;;;;5112641;28;20573;-79
2022/12/05 05:19:48;;;;;;;49.80;22.43;;;;;;;;;;5112847;28;20202;-79
2022/12/05 05:22:16;;;;;;;58.60;24.80;;;;;;;;;;5111653;28;20252;-80
2022/12/05 05:24:43;;;;;;;53.50;23.40;;;;;;;;;;5112390;27;20202;-79
2022/12/05 05:27:10;;;;;;;55.73;24.80;;;;;;;;;;5126772;28;20637;-79
2022/12/05 05:29:39;;;;;;;55.27;24.90;;;;;;;;;;5114702;28;20264;-79
2022/12/05 05:32:06;;;;;;;54.57;23.83;;;;;;;;;;5111804;28;20287;-79
2022/12/05 05:34:33;;;;;;;54.57;23.67;;;;;;;;;;5111601;28;20705;-79
2022/12/05 05:37:00;;;;;;;54.97;23.70;;;;;;;;;;5111908;28;20207;-80
2022/12/05 05:39:28;;;;;;;54.93;23.43;;;;;;;;;;5117765;27;20229;-79
2022/12/05 05:41:55;;;;;;;52.87;23.70;;;;;;;;;;5136425;27;20227;-79
2022/12/05 05:44:22;;;;;;;59.10;24.40;;;;;;;;;;5127417;27;20737;-79
2022/12/05 05:46:51;;;;;;;53.83;24.10;;;;;;;;;;5115014;28;20229;-79
2022/12/05 05:49:19;;;;;;;52.73;23.73;;;;;;;;;;5115706;27;20237;-79
2022/12/05 05:51:46;;;;;;;57.40;24.10;;;;;;;;;;5114659;27;20233;-79
2022/12/05 05:54:13;;;;;;;56.60;24.13;;;;;;;;;;5125051;27;20232;-79
2022/12/05 05:56:41;;;;;;;55.00;24.43;;;;;;;;;;5099155;28;20965;-79
2022/12/05 05:59:08;;;;;;;57.17;25.07;;;;;;;;;;5112569;27;20287;-79
2022/12/05 06:01:35;;;;;;;60.43;24.80;;;;;;;;;;5114946;28;20306;-81
2022/12/05 06:04:04;;;;;;;60.93;25.47;;;;;;;;;;5105415;27;20233;-82
2022/12/05 06:06:31;;;;;;;59.63;24.90;;;;;;;;;;5097456;28;20255;-83
2022/12/05 06:08:58;;;;;;;61.63;24.50;;;;;;;;;;5114497;27;20283;-82
2022/12/05 06:11:26;;;;;;;68.63;35.03;;;;;;;;;;5106840;27;20718;-83
2022/12/05 06:13:54;;;;;;;201.57;125.67;;;;;;;;;;5098268;28;20201;-84
2022/12/05 06:16:22;;;;;;;83.73;43.53;;;;;;;;;;5106039;27;20644;-84
2022/12/05 06:18:49;;;;;;;94.43;51.20;;;;;;;;;;5124463;27;20195;-84
2022/12/05 06:21:18;;;;;;;64.87;28.20;;;;;;;;;;5105826;27;20218;-79
2022/12/05 06:23:45;;;;;;;70.60;34.13;;;;;;;;;;5111453;27;20264;-85
2022/12/05 06:26:13;;;;;;;85.00;40.27;;;;;;;;;;5102947;27;20582;-84
2022/12/05 06:28:41;;;;;;;103.60;50.40;;;;;;;;;;5117359;27;20218;-84
2022/12/05 06:31:09;;;;;;;241.97;132.60;;;;;;;;;;5095768;27;20198;-84
2022/12/05 06:33:36;;;;;;;111.83;57.40;;;;;;;;;;5100379;27;20287;-85
2022/12/05 06:36:05;;;;;;;99.27;50.87;;;;;;;;;;5110648;28;20228;-83
2022/12/05 06:38:34;;;;;;;64.17;30.00;;;;;;;;;;5105928;27;20226;-81
2022/12/05 06:41:01;;;;;;;72.40;30.00;;;;;;;;;;5101148;28;20235;-86
2022/12/05 06:43:28;;;;;;;803.07;471.33;;;;;;;;;;5097876;27;20198;-85
2022/12/05 06:45:56;;;;;;;300.27;138.97;;;;;;;;;;5095543;28;20227;-88
2022/12/05 06:48:23;;;;;;;120.40;56.50;;;;;;;;;;5130998;27;20234;-89
2022/12/05 06:50:51;;;;;;;146.77;60.43;;;;;;;;;;5102049;27;20228;-90
2022/12/05 06:53:19;;;;;;;101.53;42.97;;;;;;;;;;5094114;28;20225;-89
2022/12/05 06:55:57;;;;;;;72.53;30.13;;;;;;;;;;5094744;28;20661;-89
2022/12/05 06:58:24;;;;;;;61.43;25.87;;;;;;;;;;5095131;28;20235;-89
2022/12/05 07:03:37;;;;;;;347.70;151.47;;;;;;;;;;5095251;28;20264;-89
2022/12/05 07:06:05;;;;;;;203.87;86.00;;;;;;;;;;5114978;28;20667;-90
2022/12/05 07:08:34;;;;;;;270.93;106.10;;;;;;;;;;5114925;28;20207;-90
2022/12/05 07:11:02;;;;;;;269.47;109.00;;;;;;;;;;5106797;28;20259;-92
2022/12/05 07:13:30;;;;;;;479.30;218.77;;;;;;;;;;5094245;28;20234;-91
2022/12/05 07:15:58;;;;;;;94.27;41.30;;;;;;;;;;5099991;27;20220;-90
2022/12/05 07:18:25;;;;;;;69.30;29.37;;;;;;;;;;5119757;27;20287;-90
2022/12/05 07:20:57;;;;;;;63.97;27.63;;;;;;;;;;5097733;28;20231;-90
2022/12/05 07:23:24;;;;;;;67.43;28.50;;;;;;;;;;5111663;27;20300;-90
2022/12/05 07:25:52;;;;;;;394.40;153.23;;;;;;;;;;5114241;28;20195;-90
2022/12/05 07:28:21;;;;;;;118.13;51.90;;;;;;;;;;5101190;27;20737;-90
2022/12/05 07:30:48;;;;;;;220.07;78.97;;;;;;;;;;5110148;28;20273;-91
2022/12/05 07:33:16;;;;;;;133.90;53.73;;;;;;;;;;5113974;28;20573;-90
2022/12/05 07:35:43;;;;;;;70.97;29.60;;;;;;;;;;5114409;27;20673;-91
2022/12/05 07:38:11;;;;;;;98.90;39.20;;;;;;;;;;5113393;28;20211;-90
2022/12/05 07:40:38;;;;;;;78.50;32.70;;;;;;;;;;5099866;28;20637;-90
2022/12/05 07:43:06;;;;;;;162.00;60.13;;;;;;;;;;5111033;28;20317;-90
2022/12/05 07:45:36;;;;;;;177.47;67.27;;;;;;;;;;5109455;28;20256;-90
2022/12/05 07:48:03;;;;;;;124.53;50.77;;;;;;;;;;5103186;28;20194;-90
2022/12/05 07:50:30;;;;;;;278.63;115.40;;;;;;;;;;5109797;27;20202;-90
2022/12/05 07:52:58;;;;;;;92.70;38.23;;;;;;;;;;5101570;28;20229;-90
2022/12/05 07:55:25;;;;;;;185.27;76.07;;;;;;;;;;5113689;28;20202;-90
2022/12/05 07:57:53;;;;;;;488.70;191.73;;;;;;;;;;5105094;27;20207;-90
2022/12/05 08:00:21;;;;;;;209.87;92.47;;;;;;;;;;5104868;28;20214;-90
2022/12/05 08:02:49;;;;;;;128.43;71.03;;;;;;;;;;5112821;28;20237;-90
2022/12/05 08:05:17;;;;;;;95.87;50.43;;;;;;;;;;5096791;28;20227;-89
2022/12/05 08:07:44;;;;;;;70.50;32.57;;;;;;;;;;5106067;28;20568;-90
2022/12/05 08:10:12;;;;;;;64.47;26.67;;;;;;;;;;5105719;28;20201;-90
2022/12/05 08:12:39;;;;;;;62.70;27.10;;;;;;;;;;5093603;28;20222;-90
2022/12/05 08:15:07;;;;;;;57.27;25.43;;;;;;;;;;5093520;28;20258;-90
2022/12/05 08:17:35;;;;;;;66.73;27.10;;;;;;;;;;5093611;28;20637;-90
2022/12/05 08:20:04;;;;;;;61.50;25.07;;;;;;;;;;5100026;28;20201;-90
2022/12/05 08:22:31;;;;;;;63.97;26.83;;;;;;;;;;5103041;28;20708;-90
2022/12/05 08:24:59;;;;;;;68.97;26.90;;;;;;;;;;5099736;28;20202;-89
2022/12/05 08:27:26;;;;;;;62.53;25.30;;;;;;;;;;5094056;28;20209;-90
2022/12/05 08:29:55;;;;;;;68.77;26.47;;;;;;;;;;5111195;28;20251;-89
2022/12/05 08:32:22;;;;;;;68.60;26.57;;;;;;;;;;5109566;28;20632;-90
2022/12/05 08:34:50;;;;;;;69.73;28.60;;;;;;;;;;5108417;28;20955;-90
2022/12/05 08:37:18;;;;;;;65.57;27.77;;;;;;;;;;5112386;28;20197;-90
2022/12/05 08:39:46;;;;;;;64.80;28.70;;;;;;;;;;5112628;27;20209;-90
2022/12/05 08:42:13;;;;;;;63.37;29.50;;;;;;;;;;5110738;28;20593;-90
2022/12/05 08:44:40;;;;;;;68.13;27.20;;;;;;;;;;5101969;28;20208;-90
2022/12/05 08:47:08;;;;;;;66.87;26.67;;;;;;;;;;5105702;27;20197;-90
2022/12/05 08:49:35;;;;;;;70.17;27.87;;;;;;;;;;5114202;28;20212;-90
2022/12/05 08:52:02;;;;;;;70.70;27.67;;;;;;;;;;5105178;28;20654;-90
2022/12/05 08:54:31;;;;;;;65.87;28.00;;;;;;;;;;5108513;28;20220;-90
2022/12/05 08:56:59;;;;;;;66.33;26.70;;;;;;;;;;5106435;28;20221;-90
2022/12/05 08:59:28;;;;;;;61.63;27.00;;;;;;;;;;5107905;27;20584;-90
2022/12/05 09:01:55;;;;;;;64.00;27.60;;;;;;;;;;5116861;28;20230;-90
2022/12/05 09:04:24;;;;;;;60.00;25.67;;;;;;;;;;5103870;27;20250;-90
2022/12/05 09:06:52;;;;;;;68.80;27.23;;;;;;;;;;5105020;28;20228;-90
2022/12/05 09:09:19;;;;;;;66.97;30.33;;;;;;;;;;5100030;28;20220;-90
2022/12/05 09:11:49;;;;;;;65.13;26.77;;;;;;;;;;5093156;28;20198;-90
2022/12/05 09:14:17;;;;;;;63.43;26.40;;;;;;;;;;5094412;28;20763;-90
2022/12/05 09:16:46;;;;;;;62.23;25.90;;;;;;;;;;5097405;28;20209;-90
2022/12/05 09:19:14;;;;;;;64.20;26.27;;;;;;;;;;5097148;28;20233;-90
2022/12/05 09:21:42;;;;;;;68.87;27.93;;;;;;;;;;5096752;28;20673;-90
2022/12/05 09:24:11;;;;;;;60.10;24.97;;;;;;;;;;5096777;28;20689;-90
2022/12/05 09:26:39;;;;;;;69.30;28.67;;;;;;;;;;5096321;28;20205;-89
2022/12/05 09:29:08;;;;;;;75.10;30.43;;;;;;;;;;5097286;28;20274;-90
2022/12/05 09:31:36;;;;;;;69.90;29.00;;;;;;;;;;5096644;28;20227;-90
2022/12/05 09:34:04;;;;;;;67.73;27.33;;;;;;;;;;5097034;28;20202;-90
2022/12/05 09:36:32;;;;;;;62.13;25.67;;;;;;;;;;5131582;27;20641;-89
2022/12/05 09:39:01;;;;;;;62.13;26.87;;;;;;;;;;5118642;27;20200;-90
2022/12/05 09:44:27;;;;;;;60.93;24.33;;;;;;;;;;5096534;28;20590;-90
2022/12/05 09:46:57;;;;;;;53.77;23.33;;;;;;;;;;5096290;28;20230;-89
2022/12/05 09:49:25;;;;;;;52.73;23.00;;;;;;;;;;5096718;28;20659;-89
2022/12/05 09:51:54;;;;;;;51.93;24.10;;;;;;;;;;5096161;28;20221;-90
2022/12/05 09:54:22;;;;;;;53.00;23.80;;;;;;;;;;5107045;28;20231;-89
2022/12/05 09:56:50;;;;;;;61.97;27.97;;;;;;;;;;5116105;27;20217;-89
2022/12/05 09:59:19;;;;;;;59.23;28.30;;;;;;;;;;5116715;27;20206;-90
2022/12/05 10:01:52;;;;;;;58.47;27.47;;;;;;;;;;5115905;27;20236;-90
2022/12/05 10:04:27;;;;;;;60.77;26.67;;;;;;;;;;5111634;28;20281;-87
2022/12/05 10:06:57;;;;;;;52.23;25.47;;;;;;;;;;5108103;28;20648;-87
2022/12/05 10:09:31;;;;;;;50.07;23.93;;;;;;;;;;5115691;28;20202;-87
2022/12/05 10:12:03;;;;;;;53.30;24.67;;;;;;;;;;5110157;28;20671;-88
2022/12/05 10:14:34;;;;;;;52.83;23.60;;;;;;;;;;5106686;28;20214;-88
2022/12/05 10:17:05;;;;;;;55.03;25.00;;;;;;;;;;5100613;28;20238;-88
2022/12/05 10:19:34;;;;;;;52.80;24.10;;;;;;;;;;5106918;28;20233;-88
2022/12/05 10:22:04;;;;;;;51.20;23.90;;;;;;;;;;5103890;28;20293;-87
2022/12/05 10:24:34;;;;;;;49.90;23.43;;;;;;;;;;5132179;27;20259;-87
2022/12/05 10:27:03;;;;;;;42.90;22.10;;;;;;;;;;5095234;28;20753;-87
2022/12/05 10:29:32;;;;;;;50.30;23.73;;;;;;;;;;5102842;28;20913;-88
2022/12/05 10:32:05;;;;;;;45.83;21.77;;;;;;;;;;5105910;27;20194;-88
2022/12/05 10:34:34;;;;;;;42.13;20.77;;;;;;;;;;5109485;28;20256;-88
2022/12/05 10:37:06;;;;;;;54.30;27.47;;;;;;;;;;5100904;28;20233;-87
2022/12/05 10:39:34;;;;;;;49.80;25.97;;;;;;;;;;5102681;27;20743;-87
2022/12/05 10:42:01;;;;;;;47.07;21.87;;;;;;;;;;5105114;28;20282;-88
2022/12/05 10:44:28;;;;;;;49.27;24.10;;;;;;;;;;5104739;27;20222;-87
2022/12/05 10:46:56;;;;;;;46.70;23.33;;;;;;;;;;5110201;27;20217;-88
2022/12/05 10:49:25;;;;;;;45.17;22.57;;;;;;;;;;5109764;28;20226;-87
2022/12/05 10:51:52;;;;;;;45.40;21.93;;;;;;;;;;5098015;28;20199;-88
2022/12/05 10:54:21;;;;;;;43.67;21.27;;;;;;;;;;5100720;28;20663;-88
2022/12/05 10:56:49;;;;;;;47.87;23.20;;;;;;;;;;5109357;28;20259;-87
2022/12/05 10:59:18;;;;;;;44.20;22.73;;;;;;;;;;5108457;28;20286;-88
2022/12/05 11:01:47;;;;;;;44.53;22.83;;;;;;;;;;5113226;28;20692;-88
2022/12/05 11:04:22;;;;;;;45.37;23.67;;;;;;;;;;5105906;27;20219;-88
2022/12/05 11:06:53;;;;;;;48.17;24.10;;;;;;;;;;5146248;27;20228;-87
2022/12/05 11:09:21;;;;;;;45.10;22.83;;;;;;;;;;5109368;28;20595;-87
2022/12/05 11:11:58;;;;;;;45.83;21.30;;;;;;;;;;5106457;28;20198;-87
2022/12/05 11:14:27;;;;;;;44.90;24.27;;;;;;;;;;5096418;28;20222;-88
2022/12/05 11:16:56;;;;;;;49.63;25.60;;;;;;;;;;5112282;28;20198;-88
2022/12/05 11:19:28;;;;;;;50.60;24.83;;;;;;;;;;5115937;27;20257;-88
2022/12/05 11:21:57;;;;;;;48.17;23.70;;;;;;;;;;5108805;28;20292;-88
2022/12/05 11:24:27;;;;;;;44.83;23.43;;;;;;;;;;5105824;27;20248;-88
2022/12/05 11:26:55;;;;;;;47.57;24.17;;;;;;;;;;5104516;28;20233;-87
2022/12/05 11:29:29;;;;;;;38.30;20.73;;;;;;;;;;5098814;28;20305;-87
2022/12/05 11:31:57;;;;;;;40.43;21.00;;;;;;;;;;5093891;28;20208;-87
2022/12/05 11:34:26;;;;;;;47.00;22.87;;;;;;;;;;5115392;27;20239;-87
2022/12/05 11:36:55;;;;;;;42.27;23.27;;;;;;;;;;5113064;27;20208;-88
2022/12/05 11:39:25;;;;;;;48.47;27.53;;;;;;;;;;5099517;27;20209;-87
2022/12/05 11:41:58;;;;;;;39.73;22.30;;;;;;;;;;5111098;27;20189;-88
2022/12/05 11:44:39;;;;;;;43.67;21.17;;;;;;;;;;5104754;27;20990;-87
2022/12/05 11:47:14;;;;;;;41.23;20.47;;;;;;;;;;5104496;27;20221;-88
2022/12/05 11:49:51;;;;;;;67.40;30.70;;;;;;;;;;5100160;28;20205;-87
2022/12/05 11:52:25;;;;;;;43.40;24.03;;;;;;;;;;5113429;27;20197;-87
2022/12/05 11:55:04;;;;;;;41.10;21.33;;;;;;;;;;5106119;28;20258;-87
2022/12/05 11:57:41;;;;;;;49.10;26.33;;;;;;;;;;5099773;28;20642;-88
2022/12/05 12:00:26;;;;;;;46.10;24.40;;;;;;;;;;5116535;27;20635;-87
2022/12/05 12:03:12;;;;;;;41.67;23.60;;;;;;;;;;5111361;27;20703;-87
2022/12/05 12:05:41;;;;;;;42.33;23.30;;;;;;;;;;5101763;28;20226;-87
2022/12/05 12:08:15;;;;;;;39.83;21.57;;;;;;;;;;5102889;28;20193;-88
2022/12/05 12:10:49;;;;;;;37.30;20.13;;;;;;;;;;5111547;28;20235;-87
2022/12/05 12:13:25;;;;;;;41.50;27.10;;;;;;;;;;5104713;28;20595;-88
2022/12/05 12:15:56;;;;;;;35.00;20.53;;;;;;;;;;5102625;28;20589;-88
2022/12/05 12:18:41;;;;;;;35.40;19.90;;;;;;;;;;5105639;27;20610;-88
2022/12/05 12:21:14;;;;;;;33.20;18.37;;;;;;;;;;5112143;27;20747;-88
2022/12/05 12:23:47;;;;;;;55.70;35.17;;;;;;;;;;5107454;27;20299;-88
2022/12/05 12:26:21;;;;;;;36.37;22.17;;;;;;;;;;5109133;28;20202;-88
2022/12/05 12:28:55;;;;;;;40.73;23.07;;;;;;;;;;5103420;28;20221;-88
2022/12/05 12:31:34;;;;;;;34.33;19.67;;;;;;;;;;4754503;28;10001167;-88
2022/12/05 12:34:06;;;;;;;36.70;18.27;;;;;;;;;;5105207;28;20247;-88
2022/12/05 12:36:37;;;;;;;31.43;16.97;;;;;;;;;;5107204;28;20213;-88
2022/12/05 12:39:21;;;;;;;34.13;18.83;;;;;;;;;;5098737;28;20210;-87
2022/12/05 12:42:19;;;;;;;35.80;18.80;;;;;;;;;;5114563;28;20216;-88
2022/12/05 12:47:57;;;;;;;35.27;19.50;;;;;;;;;;5050044;28;20211;-87
2022/12/05 12:50:25;;;;;;;32.80;17.83;;;;;;;;;;5043727;28;20226;-88
2022/12/05 12:53:03;;;;;;;32.73;17.63;;;;;;;;;;5041771;28;20793;-89
2022/12/05 12:55:36;;;;;;;38.67;18.60;;;;;;;;;;5044543;28;20200;-90
2022/12/05 12:58:08;;;;;;;36.97;19.53;;;;;;;;;;5043311;28;20203;-89
2022/12/05 13:00:42;;;;;;;34.43;18.40;;;;;;;;;;5053921;28;20233;-90
2022/12/05 13:03:13;;;;;;;33.77;18.33;;;;;;;;;;5053686;28;20231;-90
2022/12/05 13:17:31;;;;;;;38.90;19.87;;;;;;;;;;5036982;28;20711;-89
2022/12/05 13:20:04;;;;;;;36.43;19.57;;;;;;;;;;5044843;28;20200;-89
2022/12/05 13:22:32;;;;;;;36.83;18.37;;;;;;;;;;5039210;28;20214;-90
2022/12/05 13:25:01;;;;;;;36.30;18.83;;;;;;;;;;5086310;28;20238;-90
2022/12/05 13:27:30;;;;;;;35.87;18.83;;;;;;;;;;5103218;28;20368;-89
2022/12/05 13:30:00;;;;;;;34.17;18.10;;;;;;;;;;5107114;28;20240;-89
2022/12/05 13:32:31;;;;;;;37.33;20.30;;;;;;;;;;5106376;28;20199;-90
2022/12/05 13:35:01;;;;;;;34.63;18.73;;;;;;;;;;5110358;27;20814;-89
2022/12/05 13:43:10;;;;;;;36.63;18.93;;;;;;;;;;5121701;27;20196;-89
2022/12/05 13:45:37;;;;;;;37.70;19.43;;;;;;;;;;5142379;27;20288;-86
2022/12/05 13:48:12;;;;;;;38.97;20.53;;;;;;;;;;5137160;27;20201;-89
2022/12/05 13:50:43;;;;;;;38.63;20.57;;;;;;;;;;5136521;27;20200;-89
2022/12/05 13:53:23;;;;;;;35.17;20.03;;;;;;;;;;5135627;27;20197;-88
2022/12/05 13:55:56;;;;;;;37.10;18.77;;;;;;;;;;5133731;27;20224;-89
2022/12/05 13:58:42;;;;;;;36.17;19.10;;;;;;;;;;5122583;27;20193;-89
2022/12/05 14:01:32;;;;;;;35.30;18.00;;;;;;;;;;5139529;27;20254;-89
2022/12/05 14:04:00;;;;;;;32.23;17.97;;;;;;;;;;5130872;27;20216;-89
2022/12/05 14:06:43;;;;;;;44.77;22.27;;;;;;;;;;5135589;27;20197;-89
2022/12/05 14:09:25;;;;;;;42.17;22.40;;;;;;;;;;5134951;27;20213;-89
2022/12/05 14:12:07;;;;;;;46.97;24.00;;;;;;;;;;5134962;27;20299;-87
2022/12/05 14:14:54;;;;;;;123.00;63.63;;;;;;;;;;5132366;27;20201;-89
2022/12/05 14:17:23;;;;;;;64.90;34.97;;;;;;;;;;5136420;27;20626;-90
2022/12/05 14:19:58;;;;;;;129.30;69.73;;;;;;;;;;5136634;27;20230;-90
2022/12/05 14:22:38;;;;;;;111.57;60.80;;;;;;;;;;5136675;27;20196;-90
2022/12/05 14:25:12;;;;;;;112.87;60.97;;;;;;;;;;5136192;27;20213;-89
2022/12/05 14:27:49;;;;;;;42.13;22.77;;;;;;;;;;5137239;27;20209;-89
2022/12/05 14:30:30;;;;;;;61.93;33.67;;;;;;;;;;5135174;27;20269;-89
2022/12/05 14:33:01;;;;;;;106.03;58.90;;;;;;;;;;5135713;27;20726;-89
2022/12/05 14:35:30;;;;;;;50.50;28.87;;;;;;;;;;5135515;27;20189;-89
2022/12/05 14:37:59;;;;;;;43.30;22.87;;;;;;;;;;5138124;27;20203;-89
2022/12/05 14:40:30;;;;;;;46.60;26.17;;;;;;;;;;5141451;27;20224;-89
2022/12/05 14:42:58;;;;;;;136.83;79.07;;;;;;;;;;5129195;27;20624;-89
2022/12/05 14:45:28;;;;;;;112.37;61.63;;;;;;;;;;5133725;27;20228;-89
2022/12/05 14:47:57;;;;;;;67.63;36.57;;;;;;;;;;5135978;27;20273;-89
2022/12/05 14:50:43;;;;;;;52.53;27.50;;;;;;;;;;5135375;27;20242;-89
2022/12/05 14:53:15;;;;;;;127.20;63.47;;;;;;;;;;5135738;27;20224;-88
2022/12/05 14:55:43;;;;;;;55.00;29.07;;;;;;;;;;5135467;27;20209;-89
2022/12/05 14:58:16;;;;;;;76.40;36.63;;;;;;;;;;5134474;27;20221;-89
2022/12/05 15:00:44;;;;;;;46.00;24.20;;;;;;;;;;5134497;27;20213;-89
2022/12/05 15:03:18;;;;;;;62.83;29.97;;;;;;;;;;5135878;27;20221;-88